sensor_id;sensor_type;location;lat;lon;timestamp;pressure;altitude;pressure_sealevel;temperature;humidity
69855;BME280;57146;48.140;16.304;2023-03-16T00:00:51;99705.03;;;2.99;66.65
69855;BME280;57146;48.140;16.304;2023-03-16T00:03:22;99711.69;;;2.95;67.13
69855;BME280;57146;48.140;16.304;2023-03-16T00:05:52;99719.69;;;2.88;67.81
69855;BME280;57146;48.140;16.304;2023-03-16T00:08:19;99712.34;;;2.85;67.76
69855;BME280;57146;48.140;16.304;2023-03-16T00:10:46;99718.56;;;2.84;68.34
69855;BME280;57146;48.140;16.304;2023-03-16T00:13:17;99726.16;;;2.86;68.39
69855;BME280;57146;48.140;16.304;2023-03-16T00:15:59;99728.75;;;2.86;67.98
69855;BME280;57146;48.140;16.304;2023-03-16T00:18:27;99713.56;;;2.78;68.05
69855;BME280;57146;48.140;16.304;2023-03-16T00:20:59;99729.94;;;2.78;68.31
69855;BME280;57146;48.140;16.304;2023-03-16T00:23:27;99733.53;;;2.77;68.54
69855;BME280;57146;48.140;16.304;2023-03-16T00:25:55;99736.38;;;2.76;68.52
69855;BME280;57146;48.140;16.304;2023-03-16T00:28:26;99733.78;;;2.76;68.56
69855;BME280;57146;48.140;16.304;2023-03-16T00:30:59;99730.41;;;2.75;68.58
69855;BME280;57146;48.140;16.304;2023-03-16T00:33:51;99739.69;;;2.71;68.44
69855;BME280;57146;48.140;16.304;2023-03-16T00:36:19;99736.53;;;2.69;68.75
69855;BME280;57146;48.140;16.304;2023-03-16T00:38:46;99741.97;;;2.68;68.69
69855;BME280;57146;48.140;16.304;2023-03-16T00:41:40;99742.53;;;2.70;68.43
69855;BME280;57146;48.140;16.304;2023-03-16T00:44:07;99743.31;;;2.70;68.42
69855;BME280;57146;48.140;16.304;2023-03-16T00:46:34;99749.84;;;2.73;68.38
69855;BME280;57146;48.140;16.304;2023-03-16T00:49:01;99745.91;;;2.70;68.24
69855;BME280;57146;48.140;16.304;2023-03-16T00:52:18;99743.47;;;2.63;68.61
69855;BME280;57146;48.140;16.304;2023-03-16T00:54:46;99754.88;;;2.62;68.56
69855;BME280;57146;48.140;16.304;2023-03-16T00:57:16;99760.31;;;2.61;68.24
69855;BME280;57146;48.140;16.304;2023-03-16T00:59:44;99758.97;;;2.58;68.38
69855;BME280;57146;48.140;16.304;2023-03-16T01:02:13;99764.97;;;2.59;68.54
69855;BME280;57146;48.140;16.304;2023-03-16T01:04:41;99766.78;;;2.58;68.79
69855;BME280;57146;48.140;16.304;2023-03-16T01:07:12;99772.22;;;2.57;68.84
69855;BME280;57146;48.140;16.304;2023-03-16T01:09:41;99774.81;;;2.57;68.27
69855;BME280;57146;48.140;16.304;2023-03-16T01:12:14;99769.84;;;2.55;68.77
69855;BME280;57146;48.140;16.304;2023-03-16T01:14:44;99780.69;;;2.52;68.37
69855;BME280;57146;48.140;16.304;2023-03-16T01:17:16;99773.59;;;2.48;68.79
69855;BME280;57146;48.140;16.304;2023-03-16T01:19:44;99779.06;;;2.46;68.48
69855;BME280;57146;48.140;16.304;2023-03-16T01:22:12;99784.13;;;2.41;69.01
69855;BME280;57146;48.140;16.304;2023-03-16T01:24:41;99783.03;;;2.37;68.78
69855;BME280;57146;48.140;16.304;2023-03-16T01:27:10;99783.97;;;2.31;69.01
69855;BME280;57146;48.140;16.304;2023-03-16T01:29:38;99781.28;;;2.26;69.26
69855;BME280;57146;48.140;16.304;2023-03-16T01:32:08;99788.50;;;2.24;69.43
69855;BME280;57146;48.140;16.304;2023-03-16T01:34:35;99791.09;;;2.24;69.60
69855;BME280;57146;48.140;16.304;2023-03-16T01:37:04;99799.13;;;2.22;69.34
69855;BME280;57146;48.140;16.304;2023-03-16T01:39:40;99792.13;;;2.23;68.77
69855;BME280;57146;48.140;16.304;2023-03-16T01:42:08;99802.09;;;2.14;69.60
69855;BME280;57146;48.140;16.304;2023-03-16T01:44:59;99798.25;;;2.16;69.43
69855;BME280;57146;48.140;16.304;2023-03-16T01:47:33;99796.22;;;2.19;69.21
69855;BME280;57146;48.140;16.304;2023-03-16T01:50:00;99786.53;;;2.14;69.27
69855;BME280;57146;48.140;16.304;2023-03-16T01:52:33;99786.75;;;2.12;68.94
69855;BME280;57146;48.140;16.304;2023-03-16T01:55:05;99793.75;;;2.12;69.00
69855;BME280;57146;48.140;16.304;2023-03-16T01:57:38;99792.97;;;2.11;69.13
69855;BME280;57146;48.140;16.304;2023-03-16T02:00:13;99795.44;;;2.06;69.22
69855;BME280;57146;48.140;16.304;2023-03-16T02:02:52;99796.25;;;2.07;69.33
69855;BME280;57146;48.140;16.304;2023-03-16T02:08:23;99805.84;;;2.06;69.49
69855;BME280;57146;48.140;16.304;2023-03-16T02:10:52;99804.50;;;2.04;69.23
69855;BME280;57146;48.140;16.304;2023-03-16T02:13:25;99811.28;;;2.05;69.41
69855;BME280;57146;48.140;16.304;2023-03-16T02:15:53;99807.31;;;2.02;68.99
69855;BME280;57146;48.140;16.304;2023-03-16T02:18:20;99816.22;;;2.06;68.93
69855;BME280;57146;48.140;16.304;2023-03-16T02:23:42;99810.16;;;2.01;69.02
69855;BME280;57146;48.140;16.304;2023-03-16T02:31:40;99814.22;;;1.85;69.56
69855;BME280;57146;48.140;16.304;2023-03-16T02:34:08;99810.31;;;1.82;69.70
69855;BME280;57146;48.140;16.304;2023-03-16T02:36:36;99805.91;;;1.83;70.28
69855;BME280;57146;48.140;16.304;2023-03-16T02:39:06;99813.13;;;1.81;70.09
69855;BME280;57146;48.140;16.304;2023-03-16T02:41:42;99810.97;;;1.78;70.82
69855;BME280;57146;48.140;16.304;2023-03-16T02:44:14;99809.41;;;1.77;70.71
69855;BME280;57146;48.140;16.304;2023-03-16T02:46:44;99811.78;;;1.78;70.31
69855;BME280;57146;48.140;16.304;2023-03-16T02:49:43;99821.94;;;1.80;70.78
69855;BME280;57146;48.140;16.304;2023-03-16T02:52:11;99823.94;;;1.78;70.66
69855;BME280;57146;48.140;16.304;2023-03-16T02:54:39;99819.34;;;1.80;70.40
69855;BME280;57146;48.140;16.304;2023-03-16T02:57:07;99821.34;;;1.78;70.31
69855;BME280;57146;48.140;16.304;2023-03-16T02:59:35;99825.44;;;1.74;70.28
69855;BME280;57146;48.140;16.304;2023-03-16T03:02:03;99839.44;;;1.73;70.55
69855;BME280;57146;48.140;16.304;2023-03-16T03:04:30;99838.41;;;1.74;70.31
69855;BME280;57146;48.140;16.304;2023-03-16T03:06:58;99842.03;;;1.73;70.94
69855;BME280;57146;48.140;16.304;2023-03-16T03:09:26;99843.50;;;1.68;70.99
69855;BME280;57146;48.140;16.304;2023-03-16T03:11:53;99848.44;;;1.70;71.17
69855;BME280;57146;48.140;16.304;2023-03-16T03:14:21;99848.44;;;1.70;70.50
69855;BME280;57146;48.140;16.304;2023-03-16T03:16:49;99859.84;;;1.69;70.65
69855;BME280;57146;48.140;16.304;2023-03-16T03:19:16;99858.50;;;1.66;70.73
69855;BME280;57146;48.140;16.304;2023-03-16T03:21:43;99866.06;;;1.68;70.99
69855;BME280;57146;48.140;16.304;2023-03-16T03:24:11;99866.53;;;1.65;71.09
69855;BME280;57146;48.140;16.304;2023-03-16T03:26:38;99870.94;;;1.64;70.79
69855;BME280;57146;48.140;16.304;2023-03-16T03:29:11;99878.13;;;1.62;70.54
69855;BME280;57146;48.140;16.304;2023-03-16T03:31:38;99877.09;;;1.63;71.12
69855;BME280;57146;48.140;16.304;2023-03-16T03:34:30;99879.03;;;1.56;70.78
69855;BME280;57146;48.140;16.304;2023-03-16T03:36:58;99883.88;;;1.53;71.29
69855;BME280;57146;48.140;16.304;2023-03-16T03:39:50;99884.56;;;1.48;71.97
69855;BME280;57146;48.140;16.304;2023-03-16T03:42:42;99888.72;;;1.37;72.16
69855;BME280;57146;48.140;16.304;2023-03-16T03:45:11;99882.84;;;1.42;72.00
69855;BME280;57146;48.140;16.304;2023-03-16T03:47:39;99888.97;;;1.48;71.66
69855;BME280;57146;48.140;16.304;2023-03-16T03:50:11;99888.97;;;1.48;71.21
69855;BME280;57146;48.140;16.304;2023-03-16T03:53:02;99883.31;;;1.51;71.19
69855;BME280;57146;48.140;16.304;2023-03-16T03:55:36;99887.16;;;1.48;71.12
69855;BME280;57146;48.140;16.304;2023-03-16T03:58:30;99890.31;;;1.50;71.45
69855;BME280;57146;48.140;16.304;2023-03-16T04:00:59;99892.56;;;1.47;71.05
69855;BME280;57146;48.140;16.304;2023-03-16T04:03:32;99893.38;;;1.47;70.76
69855;BME280;57146;48.140;16.304;2023-03-16T04:05:59;99890.78;;;1.47;71.49
69855;BME280;57146;48.140;16.304;2023-03-16T04:08:29;99895.38;;;1.45;70.90
69855;BME280;57146;48.140;16.304;2023-03-16T04:11:02;99891.56;;;1.48;70.93
69855;BME280;57146;48.140;16.304;2023-03-16T04:13:29;99889.31;;;1.39;71.49
69855;BME280;57146;48.140;16.304;2023-03-16T04:15:57;99888.63;;;1.32;71.90
69855;BME280;57146;48.140;16.304;2023-03-16T04:18:30;99903.38;;;1.32;71.70
69855;BME280;57146;48.140;16.304;2023-03-16T04:20:59;99905.41;;;1.30;72.10
69855;BME280;57146;48.140;16.304;2023-03-16T04:23:32;99902.56;;;1.31;71.38
69855;BME280;57146;48.140;16.304;2023-03-16T04:26:01;99899.19;;;1.31;71.29
69855;BME280;57146;48.140;16.304;2023-03-16T04:28:31;99897.03;;;1.28;71.38
69855;BME280;57146;48.140;16.304;2023-03-16T04:31:03;99901.44;;;1.27;71.59
69855;BME280;57146;48.140;16.304;2023-03-16T04:33:57;99903.94;;;1.22;71.65
69855;BME280;57146;48.140;16.304;2023-03-16T04:36:24;99906.84;;;1.14;72.23
69855;BME280;57146;48.140;16.304;2023-03-16T04:38:52;99916.06;;;1.10;71.95
69855;BME280;57146;48.140;16.304;2023-03-16T04:41:19;99912.91;;;1.08;72.63
69855;BME280;57146;48.140;16.304;2023-03-16T04:44:00;99921.03;;;1.11;71.84
69855;BME280;57146;48.140;16.304;2023-03-16T04:46:28;99929.03;;;1.10;71.78
69855;BME280;57146;48.140;16.304;2023-03-16T04:48:59;99919.66;;;1.09;72.60
69855;BME280;57146;48.140;16.304;2023-03-16T04:51:28;99920.34;;;1.04;72.64
69855;BME280;57146;48.140;16.304;2023-03-16T04:54:06;99931.06;;;1.08;72.30
69855;BME280;57146;48.140;16.304;2023-03-16T04:56:35;99931.06;;;1.08;72.04
69855;BME280;57146;48.140;16.304;2023-03-16T04:59:07;99927.69;;;1.07;72.01
69855;BME280;57146;48.140;16.304;2023-03-16T05:01:49;99934.09;;;1.05;72.48
69855;BME280;57146;48.140;16.304;2023-03-16T05:04:16;99936.88;;;1.03;72.31
69855;BME280;57146;48.140;16.304;2023-03-16T05:06:46;99948.06;;;1.04;71.93
69855;BME280;57146;48.140;16.304;2023-03-16T05:09:15;99958.22;;;1.05;72.15
69855;BME280;57146;48.140;16.304;2023-03-16T05:11:42;99950.88;;;1.02;72.54
69855;BME280;57146;48.140;16.304;2023-03-16T05:14:11;99952.44;;;1.03;71.61
69855;BME280;57146;48.140;16.304;2023-03-16T05:16:58;99958.44;;;1.04;72.34
69855;BME280;57146;48.140;16.304;2023-03-16T05:19:25;99956.63;;;1.04;72.58
69855;BME280;57146;48.140;16.304;2023-03-16T05:21:52;99957.19;;;1.06;71.90
69855;BME280;57146;48.140;16.304;2023-03-16T05:24:19;99960.81;;;1.05;71.86
69855;BME280;57146;48.140;16.304;2023-03-16T05:26:46;99966.22;;;1.04;71.61
69855;BME280;57146;48.140;16.304;2023-03-16T05:29:15;99954.69;;;1.00;72.30
69855;BME280;57146;48.140;16.304;2023-03-16T05:31:43;99960.78;;;0.93;71.78
69855;BME280;57146;48.140;16.304;2023-03-16T05:34:14;99964.69;;;0.96;72.77
69855;BME280;57146;48.140;16.304;2023-03-16T05:36:41;99971.91;;;0.94;71.96
69855;BME280;57146;48.140;16.304;2023-03-16T05:39:12;99969.69;;;0.98;72.63
69855;BME280;57146;48.140;16.304;2023-03-16T05:41:44;99970.69;;;0.97;71.94
69855;BME280;57146;48.140;16.304;2023-03-16T05:44:22;99973.34;;;1.08;71.79
69855;BME280;57146;48.140;16.304;2023-03-16T05:47:02;99981.03;;;1.15;72.31
69855;BME280;57146;48.140;16.304;2023-03-16T05:49:31;99981.38;;;1.18;71.52
69855;BME280;57146;48.140;16.304;2023-03-16T05:52:07;99984.09;;;1.24;71.74
69855;BME280;57146;48.140;16.304;2023-03-16T05:54:58;99985.56;;;1.31;71.01
69855;BME280;57146;48.140;16.304;2023-03-16T05:57:25;99982.97;;;1.31;71.72
69855;BME280;57146;48.140;16.304;2023-03-16T05:59:53;99988.09;;;1.38;71.50
69855;BME280;57146;48.140;16.304;2023-03-16T06:02:54;100001.75;;;1.45;70.69
69855;BME280;57146;48.140;16.304;2023-03-16T06:05:46;100004.94;;;1.47;70.88
69855;BME280;57146;48.140;16.304;2023-03-16T06:08:15;100006.50;;;1.48;70.54
69855;BME280;57146;48.140;16.304;2023-03-16T06:10:46;100005.03;;;1.52;70.64
69855;BME280;57146;48.140;16.304;2023-03-16T06:13:17;100003.38;;;1.58;70.50
69855;BME280;57146;48.140;16.304;2023-03-16T06:15:44;100003.72;;;1.61;69.96
69855;BME280;57146;48.140;16.304;2023-03-16T06:18:12;100010.50;;;1.62;70.99
69855;BME280;57146;48.140;16.304;2023-03-16T06:20:39;100012.19;;;1.68;70.55
69855;BME280;57146;48.140;16.304;2023-03-16T06:23:06;100013.69;;;1.76;69.68
69855;BME280;57146;48.140;16.304;2023-03-16T06:25:58;100014.50;;;2.00;73.30
69855;BME280;57146;48.140;16.304;2023-03-16T06:28:28;100024.34;;;2.10;68.90
69855;BME280;57146;48.140;16.304;2023-03-16T06:30:56;100028.19;;;2.07;69.16
69855;BME280;57146;48.140;16.304;2023-03-16T06:33:28;100026.03;;;2.04;69.03
69855;BME280;57146;48.140;16.304;2023-03-16T06:35:55;100026.94;;;2.10;68.13
69855;BME280;57146;48.140;16.304;2023-03-16T06:38:30;100027.50;;;2.12;68.49
69855;BME280;57146;48.140;16.304;2023-03-16T06:41:02;100032.00;;;2.16;67.88
69855;BME280;57146;48.140;16.304;2023-03-16T06:43:32;100038.34;;;2.21;68.23
69855;BME280;57146;48.140;16.304;2023-03-16T06:45:59;100044.22;;;2.28;67.77
69855;BME280;57146;48.140;16.304;2023-03-16T06:48:26;100045.81;;;2.29;67.55
69855;BME280;57146;48.140;16.304;2023-03-16T06:51:18;100051.09;;;2.34;67.64
69855;BME280;57146;48.140;16.304;2023-03-16T06:53:47;100046.81;;;2.39;67.24
69855;BME280;57146;48.140;16.304;2023-03-16T06:56:13;100060.25;;;2.48;66.49
69855;BME280;57146;48.140;16.304;2023-03-16T06:58:44;100061.25;;;2.59;66.09
69855;BME280;57146;48.140;16.304;2023-03-16T07:01:10;100059.91;;;2.68;65.81
69855;BME280;57146;48.140;16.304;2023-03-16T07:03:38;100064.41;;;2.73;65.54
69855;BME280;57146;48.140;16.304;2023-03-16T07:06:13;100057.88;;;2.82;65.59
69855;BME280;57146;48.140;16.304;2023-03-16T07:08:44;100062.69;;;2.90;65.05
69855;BME280;57146;48.140;16.304;2023-03-16T07:11:12;100063.94;;;2.99;64.53
69855;BME280;57146;48.140;16.304;2023-03-16T07:13:39;100070.13;;;3.10;64.90
69855;BME280;57146;48.140;16.304;2023-03-16T07:16:11;100063.91;;;3.11;63.68
69855;BME280;57146;48.140;16.304;2023-03-16T07:18:38;100061.16;;;3.18;63.94
69855;BME280;57146;48.140;16.304;2023-03-16T07:21:09;100062.59;;;3.25;63.58
69855;BME280;57146;48.140;16.304;2023-03-16T07:23:37;100061.78;;;3.36;63.56
69855;BME280;57146;48.140;16.304;2023-03-16T07:26:07;100061.97;;;3.47;63.10
69855;BME280;57146;48.140;16.304;2023-03-16T07:28:41;100065.69;;;3.51;62.21
69855;BME280;57146;48.140;16.304;2023-03-16T07:31:09;100060.47;;;3.51;62.26
69855;BME280;57146;48.140;16.304;2023-03-16T07:33:38;100060.16;;;3.47;61.99
69855;BME280;57146;48.140;16.304;2023-03-16T07:36:10;100058.66;;;3.51;62.44
69855;BME280;57146;48.140;16.304;2023-03-16T07:38:43;100065.53;;;3.57;62.18
69855;BME280;57146;48.140;16.304;2023-03-16T07:41:12;100063.97;;;3.56;61.41
69855;BME280;57146;48.140;16.304;2023-03-16T07:43:44;100060.72;;;3.49;62.03
69855;BME280;57146;48.140;16.304;2023-03-16T07:46:13;100062.59;;;3.54;61.74
69855;BME280;57146;48.140;16.304;2023-03-16T07:48:43;100064.59;;;3.64;61.09
69855;BME280;57146;48.140;16.304;2023-03-16T07:51:14;100062.41;;;3.72;62.15
69855;BME280;57146;48.140;16.304;2023-03-16T07:53:46;100062.31;;;3.84;61.39
69855;BME280;57146;48.140;16.304;2023-03-16T07:56:18;100058.78;;;3.90;60.02
69855;BME280;57146;48.140;16.304;2023-03-16T07:58:50;100055.56;;;4.00;58.99
69855;BME280;57146;48.140;16.304;2023-03-16T08:01:17;100061.94;;;4.09;59.09
69855;BME280;57146;48.140;16.304;2023-03-16T08:03:48;100061.56;;;4.17;58.29
69855;BME280;57146;48.140;16.304;2023-03-16T08:06:16;100060.84;;;4.22;56.00
69855;BME280;57146;48.140;16.304;2023-03-16T08:08:42;100068.81;;;4.32;54.49
69855;BME280;57146;48.140;16.304;2023-03-16T08:11:16;100063.19;;;4.40;54.41
69855;BME280;57146;48.140;16.304;2023-03-16T08:13:50;100063.19;;;4.40;54.37
69855;BME280;57146;48.140;16.304;2023-03-16T08:16:17;100072.63;;;4.41;54.45
69855;BME280;57146;48.140;16.304;2023-03-16T08:18:48;100078.38;;;4.43;54.16
69855;BME280;57146;48.140;16.304;2023-03-16T08:21:16;100084.94;;;4.46;55.26
69855;BME280;57146;48.140;16.304;2023-03-16T08:23:44;100083.41;;;4.50;56.28
69855;BME280;57146;48.140;16.304;2023-03-16T08:26:11;100085.31;;;4.54;55.45
69855;BME280;57146;48.140;16.304;2023-03-16T08:28:39;100080.09;;;4.54;54.45
69855;BME280;57146;48.140;16.304;2023-03-16T08:31:10;100098.13;;;4.56;54.96
69855;BME280;57146;48.140;16.304;2023-03-16T08:33:50;100097.88;;;4.57;54.99
69855;BME280;57146;48.140;16.304;2023-03-16T08:36:21;100087.75;;;4.61;55.02
69855;BME280;57146;48.140;16.304;2023-03-16T08:39:13;100087.56;;;4.68;54.77
69855;BME280;57146;48.140;16.304;2023-03-16T08:41:44;100102.75;;;4.71;54.95
69855;BME280;57146;48.140;16.304;2023-03-16T08:44:36;100096.03;;;4.75;52.34
69855;BME280;57146;48.140;16.304;2023-03-16T08:47:04;100090.00;;;4.74;51.07
69855;BME280;57146;48.140;16.304;2023-03-16T08:49:33;100093.72;;;4.78;51.87
69855;BME280;57146;48.140;16.304;2023-03-16T08:52:05;100089.59;;;5.04;53.70
69855;BME280;57146;48.140;16.304;2023-03-16T08:54:32;100093.19;;;5.20;51.19
69855;BME280;57146;48.140;16.304;2023-03-16T08:56:59;100100.28;;;5.25;51.27
69855;BME280;57146;48.140;16.304;2023-03-16T08:59:27;100100.59;;;5.28;52.29
69855;BME280;57146;48.140;16.304;2023-03-16T09:01:56;100088.31;;;5.29;49.48
69855;BME280;57146;48.140;16.304;2023-03-16T09:04:24;100095.63;;;5.27;49.40
69855;BME280;57146;48.140;16.304;2023-03-16T09:06:52;100090.09;;;5.23;49.24
69855;BME280;57146;48.140;16.304;2023-03-16T09:09:36;100096.78;;;5.14;49.17
69855;BME280;57146;48.140;16.304;2023-03-16T09:12:34;100091.28;;;5.16;49.47
69855;BME280;57146;48.140;16.304;2023-03-16T09:15:02;100093.19;;;5.20;49.06
69855;BME280;57146;48.140;16.304;2023-03-16T09:17:29;100099.19;;;5.21;50.45
69855;BME280;57146;48.140;16.304;2023-03-16T09:19:56;100095.31;;;5.23;48.04
69855;BME280;57146;48.140;16.304;2023-03-16T09:22:41;100098.84;;;5.34;50.23
69855;BME280;57146;48.140;16.304;2023-03-16T09:25:10;100089.53;;;5.43;48.04
69855;BME280;57146;48.140;16.304;2023-03-16T09:27:37;100089.41;;;5.55;46.78
69855;BME280;57146;48.140;16.304;2023-03-16T09:30:05;100102.78;;;5.64;45.92
69855;BME280;57146;48.140;16.304;2023-03-16T09:32:33;100095.91;;;5.52;46.09
69855;BME280;57146;48.140;16.304;2023-03-16T09:35:00;100091.84;;;5.40;45.24
69855;BME280;57146;48.140;16.304;2023-03-16T09:37:28;100096.63;;;5.26;45.28
69855;BME280;57146;48.140;16.304;2023-03-16T09:40:28;100086.50;;;5.29;46.77
69855;BME280;57146;48.140;16.304;2023-03-16T09:46:02;100093.19;;;5.42;43.49
69855;BME280;57146;48.140;16.304;2023-03-16T09:48:55;100094.44;;;5.40;44.68
69855;BME280;57146;48.140;16.304;2023-03-16T09:54:20;100097.31;;;5.65;44.06
69855;BME280;57146;48.140;16.304;2023-03-16T09:56:50;100099.13;;;5.65;44.05
69855;BME280;57146;48.140;16.304;2023-03-16T09:59:18;100091.13;;;5.71;42.99
69855;BME280;57146;48.140;16.304;2023-03-16T10:05:09;100088.22;;;5.95;43.22
69855;BME280;57146;48.140;16.304;2023-03-16T10:14:02;100071.25;;;6.30;45.55
69855;BME280;57146;48.140;16.304;2023-03-16T10:16:37;100079.94;;;6.40;43.99
69855;BME280;57146;48.140;16.304;2023-03-16T10:21:40;100087.25;;;6.38;44.09
69855;BME280;57146;48.140;16.304;2023-03-16T10:24:41;100087.78;;;6.40;43.35
69855;BME280;57146;48.140;16.304;2023-03-16T10:27:17;100084.38;;;6.40;42.35
69855;BME280;57146;48.140;16.304;2023-03-16T10:30:27;100090.22;;;6.52;41.11
69855;BME280;57146;48.140;16.304;2023-03-16T10:36:13;100085.41;;;6.39;40.29
69855;BME280;57146;48.140;16.304;2023-03-16T10:41:29;100080.69;;;6.36;40.47
69855;BME280;57146;48.140;16.304;2023-03-16T10:44:31;100084.06;;;6.36;41.23
69855;BME280;57146;48.140;16.304;2023-03-16T10:47:05;100077.28;;;6.35;41.11
69855;BME280;57146;48.140;16.304;2023-03-16T10:49:39;100084.16;;;6.46;39.40
69855;BME280;57146;48.140;16.304;2023-03-16T10:52:13;100085.75;;;6.47;39.84
69855;BME280;57146;48.140;16.304;2023-03-16T10:54:57;100074.75;;;6.51;39.40
69855;BME280;57146;48.140;16.304;2023-03-16T11:00:15;100077.91;;;6.53;38.27
69855;BME280;57146;48.140;16.304;2023-03-16T11:02:42;100082.38;;;6.52;39.65
69855;BME280;57146;48.140;16.304;2023-03-16T11:08:12;100071.91;;;6.52;39.63
69855;BME280;57146;48.140;16.304;2023-03-16T11:10:52;100074.06;;;6.65;38.24
69855;BME280;57146;48.140;16.304;2023-03-16T11:13:47;100053.44;;;6.69;39.76
69855;BME280;57146;48.140;16.304;2023-03-16T11:16:30;100065.75;;;6.74;39.62
69855;BME280;57146;48.140;16.304;2023-03-16T11:19:15;100062.91;;;6.85;38.94
69855;BME280;57146;48.140;16.304;2023-03-16T11:24:18;100061.56;;;6.78;39.10
69855;BME280;57146;48.140;16.304;2023-03-16T11:26:53;100066.00;;;6.77;38.44
69855;BME280;57146;48.140;16.304;2023-03-16T11:29:26;100065.00;;;6.88;37.70
69855;BME280;57146;48.140;16.304;2023-03-16T11:32:10;100065.56;;;7.01;35.66
69855;BME280;57146;48.140;16.304;2023-03-16T11:34:41;100057.44;;;6.97;38.13
69855;BME280;57146;48.140;16.304;2023-03-16T11:41:02;100051.75;;;7.05;39.41
69855;BME280;57146;48.140;16.304;2023-03-16T11:43:54;100057.75;;;7.11;40.38
69855;BME280;57146;48.140;16.304;2023-03-16T11:54:43;100049.13;;;7.10;39.69
69855;BME280;57146;48.140;16.304;2023-03-16T11:57:41;100043.88;;;7.10;38.22
69855;BME280;57146;48.140;16.304;2023-03-16T12:08:27;100011.94;;;6.98;39.53
69855;BME280;57146;48.140;16.304;2023-03-16T12:17:12;100015.19;;;7.51;38.29
69855;BME280;57146;48.140;16.304;2023-03-16T12:22:16;100008.34;;;7.40;37.65
69855;BME280;57146;48.140;16.304;2023-03-16T12:24:45;100003.91;;;7.46;37.28
69855;BME280;57146;48.140;16.304;2023-03-16T12:27:19;99999.66;;;7.29;38.66
69855;BME280;57146;48.140;16.304;2023-03-16T12:30:17;99993.94;;;7.53;39.09
69855;BME280;57146;48.140;16.304;2023-03-16T12:41:29;99991.84;;;7.60;38.00
69855;BME280;57146;48.140;16.304;2023-03-16T12:49:31;99983.19;;;7.29;38.09
69855;BME280;57146;48.140;16.304;2023-03-16T12:52:05;99972.72;;;7.49;36.75
69855;BME280;57146;48.140;16.304;2023-03-16T12:55:57;99982.19;;;7.76;36.30
69855;BME280;57146;48.140;16.304;2023-03-16T12:58:01;99980.06;;;7.83;36.14
69855;BME280;57146;48.140;16.304;2023-03-16T13:00:32;99975.59;;;7.94;36.29
69855;BME280;57146;48.140;16.304;2023-03-16T13:03:01;99978.50;;;7.77;36.50
69855;BME280;57146;48.140;16.304;2023-03-16T13:05:32;99971.41;;;7.87;36.23
69855;BME280;57146;48.140;16.304;2023-03-16T13:08:26;99965.38;;;7.97;36.34
69855;BME280;57146;48.140;16.304;2023-03-16T13:13:30;99972.91;;;8.14;36.98
69855;BME280;57146;48.140;16.304;2023-03-16T13:16:23;99963.50;;;8.13;36.29
69855;BME280;57146;48.140;16.304;2023-03-16T13:18:50;99965.84;;;8.20;36.06
69855;BME280;57146;48.140;16.304;2023-03-16T13:24:25;99967.22;;;7.71;36.62
69855;BME280;57146;48.140;16.304;2023-03-16T13:27:25;99972.72;;;7.59;37.39
69855;BME280;57146;48.140;16.304;2023-03-16T13:29:54;99971.16;;;7.63;38.31
69855;BME280;57146;48.140;16.304;2023-03-16T13:32:23;99961.22;;;7.76;37.96
69855;BME280;57146;48.140;16.304;2023-03-16T13:34:52;99969.59;;;7.52;37.56
69855;BME280;57146;48.140;16.304;2023-03-16T13:37:22;99966.44;;;7.71;37.79
69855;BME280;57146;48.140;16.304;2023-03-16T13:39:57;99960.69;;;7.63;38.69
69855;BME280;57146;48.140;16.304;2023-03-16T13:42:28;99961.47;;;7.69;39.02
69855;BME280;57146;48.140;16.304;2023-03-16T13:45:31;99965.09;;;7.99;37.27
69855;BME280;57146;48.140;16.304;2023-03-16T13:48:01;99951.44;;;8.07;37.93
69855;BME280;57146;48.140;16.304;2023-03-16T13:50:33;99955.31;;;8.25;37.37
69855;BME280;57146;48.140;16.304;2023-03-16T13:53:02;99946.72;;;8.09;37.19
69855;BME280;57146;48.140;16.304;2023-03-16T13:55:37;99946.78;;;7.83;36.57
69855;BME280;57146;48.140;16.304;2023-03-16T13:58:04;99938.88;;;7.99;38.24
69855;BME280;57146;48.140;16.304;2023-03-16T14:00:33;99938.28;;;8.37;36.92
69855;BME280;57146;48.140;16.304;2023-03-16T14:03:14;99933.25;;;8.46;36.04
69855;BME280;57146;48.140;16.304;2023-03-16T14:06:22;99938.97;;;8.53;36.29
69855;BME280;57146;48.140;16.304;2023-03-16T14:08:51;99938.75;;;8.50;37.08
69855;BME280;57146;48.140;16.304;2023-03-16T14:11:19;99935.03;;;8.56;34.92
69855;BME280;57146;48.140;16.304;2023-03-16T14:13:52;99935.03;;;8.56;35.21
69855;BME280;57146;48.140;16.304;2023-03-16T14:16:22;99928.28;;;8.45;36.34
69855;BME280;57146;48.140;16.304;2023-03-16T14:19:07;99929.63;;;8.27;37.02
69855;BME280;57146;48.140;16.304;2023-03-16T14:21:43;99930.69;;;8.21;35.35
69855;BME280;57146;48.140;16.304;2023-03-16T14:24:28;99929.09;;;8.40;35.39
69855;BME280;57146;48.140;16.304;2023-03-16T14:26:56;99931.91;;;8.54;35.79
69855;BME280;57146;48.140;16.304;2023-03-16T14:29:27;99935.78;;;8.67;35.84
69855;BME280;57146;48.140;16.304;2023-03-16T14:31:55;99934.25;;;8.55;36.13
69855;BME280;57146;48.140;16.304;2023-03-16T14:34:36;99921.69;;;8.52;35.82
69855;BME280;57146;48.140;16.304;2023-03-16T14:37:09;99925.13;;;8.43;35.68
69855;BME280;57146;48.140;16.304;2023-03-16T14:39:36;99934.81;;;8.52;37.94
69855;BME280;57146;48.140;16.304;2023-03-16T14:42:04;99933.94;;;8.72;36.67
69855;BME280;57146;48.140;16.304;2023-03-16T14:44:34;99919.59;;;8.49;35.87
69855;BME280;57146;48.140;16.304;2023-03-16T14:47:03;99916.22;;;8.28;35.94
69855;BME280;57146;48.140;16.304;2023-03-16T14:49:37;99928.00;;;8.36;35.52
69855;BME280;57146;48.140;16.304;2023-03-16T14:52:30;99923.84;;;8.30;35.53
69855;BME280;57146;48.140;16.304;2023-03-16T14:55:11;99925.72;;;8.19;36.79
69855;BME280;57146;48.140;16.304;2023-03-16T14:57:40;99926.22;;;8.21;35.73
69855;BME280;57146;48.140;16.304;2023-03-16T15:00:10;99915.94;;;8.50;35.24